createdAt,value
2017-12-04T00:02:03.391Z,71.7
2017-12-04T00:07:03.608Z,71.8
2017-12-04T00:12:03.844Z,71.8
2017-12-04T00:17:04.104Z,71.9
2017-12-04T00:22:03.931Z,71.7
2017-12-04T00:27:03.187Z,71.8
2017-12-04T00:32:03.304Z,71.8
2017-12-04T00:37:03.424Z,71.9
2017-12-04T00:42:03.477Z,72.0
2017-12-04T00:47:03.581Z,72.0
2017-12-04T00:52:03.246Z,72.1
2017-12-04T00:57:03.310Z,71.9
2017-12-04T01:02:03.473Z,72.1
2017-12-04T01:07:03.629Z,72.2
2017-12-04T01:12:03.756Z,72.1
2017-12-04T01:17:03.871Z,72.3
2017-12-04T01:22:03.921Z,72.3
2017-12-04T01:27:03.120Z,72.4
2017-12-04T01:32:03.141Z,72.3
2017-12-04T01:37:03.714Z,72.3
2017-12-04T01:42:03.795Z,72.2
2017-12-04T01:47:03.912Z,72.2
2017-12-04T01:52:02.967Z,72.5
2017-12-04T01:57:03.099Z,72.5
2017-12-04T02:02:03.256Z,72.6
2017-12-04T02:07:03.749Z,72.4
2017-12-04T02:12:03.939Z,72.3
2017-12-04T02:17:04.111Z,72.5
2017-12-04T02:22:03.709Z,72.4
2017-12-04T02:27:03.852Z,72.6
2017-12-04T02:32:03.876Z,72.5
2017-12-04T02:37:04.007Z,72.6
2017-12-04T02:42:03.064Z,72.4
2017-12-04T02:47:03.367Z,72.3
2017-12-04T02:52:03.456Z,72.4
2017-12-04T02:57:03.595Z,72.4
2017-12-04T03:02:03.713Z,72.9
2017-12-04T03:07:03.824Z,72.8
2017-12-04T03:12:03.157Z,72.6
2017-12-04T03:17:03.503Z,72.6
2017-12-04T03:22:03.598Z,72.6
2017-12-04T03:27:03.582Z,72.6
2017-12-04T03:32:03.678Z,72.6
2017-12-04T03:37:03.458Z,72.7
2017-12-04T03:42:03.514Z,72.7
2017-12-04T03:47:03.722Z,72.4
2017-12-04T03:52:03.626Z,72.6
2017-12-04T03:57:03.752Z,72.7
2017-12-04T04:02:04.434Z,72.8
2017-12-04T04:07:03.370Z,72.9
2017-12-04T04:12:03.602Z,72.5
2017-12-04T04:17:04.061Z,72.8
2017-12-04T04:22:03.790Z,72.9
2017-12-04T04:27:03.922Z,72.8
2017-12-04T04:32:03.118Z,72.9
2017-12-04T04:37:03.322Z,73.0
2017-12-04T04:42:03.411Z,72.7
2017-12-04T04:47:03.536Z,73.0
2017-12-04T04:52:03.651Z,73.0
2017-12-04T04:57:03.782Z,73.0
2017-12-04T05:02:04.192Z,73.1
2017-12-04T05:07:03.264Z,73.1
2017-12-04T05:12:03.573Z,73.0
2017-12-04T05:17:03.607Z,73.1
2017-12-04T05:22:03.853Z,73.2
2017-12-04T05:27:03.962Z,73.3
2017-12-04T05:32:03.241Z,73.3
2017-12-04T05:37:03.284Z,73.1
2017-12-04T05:42:03.358Z,73.4
2017-12-04T05:47:03.441Z,73.2
2017-12-04T05:52:03.507Z,73.3
2017-12-04T05:57:03.577Z,73.3
2017-12-04T06:02:03.707Z,73.3
2017-12-04T06:07:03.984Z,73.2
2017-12-04T06:12:03.185Z,73.2
2017-12-04T06:17:03.652Z,73.3
2017-12-04T06:22:03.531Z,73.2
2017-12-04T06:27:03.640Z,73.3
2017-12-04T06:32:15.987Z,73.5
2017-12-04T06:37:03.236Z,73.4
2017-12-04T06:42:03.494Z,73.5
2017-12-04T06:47:28.923Z,73.0
2017-12-04T06:52:03.819Z,73.1
2017-12-04T06:57:03.929Z,73.2
2017-12-04T07:02:22.199Z,73.2
2017-12-04T07:07:03.679Z,73.2
2017-12-04T07:12:03.129Z,73.3
2017-12-04T07:17:28.652Z,73.3
2017-12-04T07:22:03.035Z,73.4
2017-12-04T07:27:03.287Z,73.2
2017-12-04T07:32:26.856Z,73.2
2017-12-04T07:37:03.697Z,73.0
2017-12-04T07:42:03.827Z,73.3
2017-12-04T07:47:24.559Z,73.2
2017-12-04T07:52:03.132Z,73.2
2017-12-04T07:57:03.319Z,73.3
2017-12-04T08:02:23.528Z,73.0
2017-12-04T08:07:03.753Z,73.1
2017-12-04T08:12:03.019Z,72.9
2017-12-04T08:17:23.331Z,72.8
2017-12-04T08:22:03.505Z,72.9
2017-12-04T08:27:03.670Z,73.0
2017-12-04T08:32:22.525Z,73.0
2017-12-04T08:37:03.594Z,72.6
2017-12-04T08:42:03.833Z,72.7
2017-12-04T08:47:22.469Z,72.6
2017-12-04T08:52:03.077Z,72.5
2017-12-04T08:57:03.229Z,72.5
2017-12-04T09:02:23.624Z,72.6
2017-12-04T09:07:03.829Z,72.5
2017-12-04T09:12:03.016Z,72.5
2017-12-04T09:17:22.905Z,72.5
2017-12-04T09:22:03.538Z,72.5
2017-12-04T09:27:03.736Z,72.4
2017-12-04T09:32:23.451Z,72.4
2017-12-04T09:37:03.047Z,72.1
2017-12-04T09:42:03.226Z,71.9
2017-12-04T09:47:23.447Z,71.9
2017-12-04T09:52:03.635Z,71.9
2017-12-04T09:57:03.550Z,72.0
2017-12-04T10:02:22.283Z,72.1
2017-12-04T10:07:03.961Z,72.1
2017-12-04T10:12:03.234Z,72.2
2017-12-04T10:17:22.132Z,72.3
2017-12-04T10:22:03.776Z,72.1
2017-12-04T10:27:03.723Z,72.1
2017-12-04T10:32:14.394Z,72.2
2017-12-04T10:37:03.963Z,72.0
2017-12-04T10:42:03.974Z,72.0
2017-12-04T10:47:24.044Z,71.8
2017-12-04T10:52:03.517Z,71.9
2017-12-04T10:57:03.738Z,71.8
2017-12-04T11:02:24.735Z,72.0
2017-12-04T11:07:03.313Z,72.0
2017-12-04T11:12:03.554Z,72.0
2017-12-04T11:17:24.740Z,72.1
2017-12-04T11:22:03.900Z,72.2
2017-12-04T11:27:03.130Z,72.2
2017-12-04T11:32:21.839Z,72.0
2017-12-04T11:37:03.420Z,72.2
2017-12-04T11:42:03.608Z,72.2
2017-12-04T11:47:22.179Z,72.1
2017-12-04T11:52:03.896Z,72.0
2017-12-04T11:57:03.077Z,71.9
2017-12-04T12:02:24.974Z,72.5
2017-12-04T12:07:03.687Z,72.3
2017-12-04T12:12:03.931Z,72.5
2017-12-04T12:17:24.761Z,72.5
2017-12-04T12:22:03.254Z,72.7
2017-12-04T12:27:03.494Z,73.0
2017-12-04T12:32:24.885Z,72.9
2017-12-04T12:37:03.848Z,72.9
2017-12-04T12:42:03.965Z,72.9
2017-12-04T12:47:24.506Z,72.9
2017-12-04T12:52:03.244Z,72.9
2017-12-04T12:57:03.333Z,73.0
2017-12-04T13:02:24.442Z,73.0
2017-12-04T13:07:03.926Z,73.1
2017-12-04T13:12:03.255Z,73.1
2017-12-04T13:17:24.779Z,72.8
2017-12-04T13:22:03.791Z,72.8
2017-12-04T13:27:03.920Z,73.0
2017-12-04T13:32:21.756Z,73.1
2017-12-04T13:37:03.659Z,73.3
2017-12-04T13:42:03.699Z,73.1
2017-12-04T13:47:24.539Z,72.9
2017-12-04T13:52:02.982Z,73.3
2017-12-04T13:57:03.189Z,73.4
2017-12-04T14:02:21.985Z,73.7
2017-12-04T14:07:03.741Z,73.6
2017-12-04T14:12:03.972Z,73.7
2017-12-04T14:17:23.336Z,73.7
2017-12-04T14:22:03.423Z,73.6
2017-12-04T14:27:03.659Z,73.7
2017-12-04T14:32:24.512Z,73.8
2017-12-04T14:37:03.953Z,73.7
2017-12-04T14:42:02.928Z,74.2
2017-12-04T14:47:21.574Z,74.3
2017-12-04T14:52:03.336Z,74.4
2017-12-04T14:57:03.534Z,74.5
2017-12-04T15:02:17.055Z,74.1
2017-12-04T15:07:03.853Z,74.3
2017-12-04T15:12:03.169Z,74.4
2017-12-04T15:17:20.622Z,74.4
2017-12-04T15:22:03.981Z,74.4
2017-12-04T15:27:03.348Z,74.6
2017-12-04T15:32:28.149Z,74.6
2017-12-04T15:37:03.905Z,74.6
2017-12-04T15:42:03.087Z,74.6
2017-12-04T15:47:28.410Z,74.8
2017-12-04T15:52:03.153Z,74.8
2017-12-04T15:57:03.405Z,74.7
2017-12-04T16:02:15.070Z,74.6
2017-12-04T16:07:03.952Z,74.7
2017-12-04T16:12:03.349Z,74.7
2017-12-04T16:17:03.817Z,74.6
2017-12-04T16:22:03.700Z,74.7
2017-12-04T16:27:03.811Z,74.5
2017-12-04T16:32:03.940Z,74.6
2017-12-04T16:37:03.242Z,74.7
2017-12-04T16:42:03.309Z,74.7
2017-12-04T16:47:03.404Z,74.6
2017-12-04T16:52:03.536Z,74.7
2017-12-04T16:57:03.491Z,75.0
2017-12-04T17:02:03.719Z,75.0
2017-12-04T17:07:03.900Z,74.8
2017-12-04T17:12:03.141Z,74.9
2017-12-04T17:17:03.502Z,74.9
2017-12-04T17:22:03.451Z,75.1
2017-12-04T17:27:03.588Z,75.1
2017-12-04T17:32:03.774Z,75.2
2017-12-04T17:37:03.840Z,75.4
2017-12-04T17:42:03.862Z,75.0
2017-12-04T17:47:03.111Z,75.1
2017-12-04T17:52:03.317Z,75.0
2017-12-04T17:57:03.444Z,75.1
2017-12-04T18:02:03.552Z,75.6
2017-12-04T18:07:03.759Z,75.4
2017-12-04T18:12:04.128Z,75.3
2017-12-04T18:17:03.659Z,75.1
2017-12-04T18:22:03.440Z,75.1
2017-12-04T18:27:03.631Z,75.2
2017-12-04T18:32:04.116Z,75.3
2017-12-04T18:37:03.781Z,75.4
2017-12-04T18:42:04.718Z,75.4
2017-12-04T18:47:05.186Z,75.4
2017-12-04T18:52:03.322Z,75.4
2017-12-04T18:57:03.461Z,75.3
2017-12-04T19:02:03.793Z,75.4
2017-12-04T19:07:03.760Z,75.3
2017-12-04T19:12:04.036Z,75.3
2017-12-04T19:17:04.410Z,75.3
2017-12-04T19:22:03.742Z,75.2
2017-12-04T19:27:04.385Z,75.2
2017-12-04T19:32:04.276Z,75.3
2017-12-04T19:37:03.966Z,75.4
2017-12-04T19:42:03.528Z,75.2
2017-12-04T19:47:04.508Z,75.3
2017-12-04T19:52:03.487Z,75.2
2017-12-04T19:57:03.417Z,75.4
2017-12-04T20:02:10.092Z,75.5
2017-12-04T20:07:03.831Z,75.5
2017-12-04T20:12:03.130Z,75.6
2017-12-04T20:17:03.361Z,75.7
2017-12-04T20:22:03.530Z,75.8
2017-12-04T20:27:03.551Z,72.4
2017-12-04T20:32:03.673Z,76.1
2017-12-04T20:37:03.835Z,76.0
2017-12-04T20:42:03.831Z,76.0
2017-12-04T20:47:03.995Z,76.0
2017-12-04T20:52:03.109Z,75.9
2017-12-04T20:57:03.293Z,75.9
2017-12-04T21:02:03.681Z,75.5
2017-12-04T21:07:03.594Z,75.5
2017-12-04T21:12:03.911Z,75.7
2017-12-04T21:17:04.080Z,75.7
2017-12-04T21:22:03.147Z,75.8
2017-12-04T21:27:03.354Z,75.9
2017-12-04T21:32:03.745Z,75.7
2017-12-04T21:37:03.670Z,75.7
2017-12-04T21:42:03.773Z,75.7
2017-12-04T21:47:03.912Z,75.8
2017-12-04T21:52:03.106Z,75.8
2017-12-04T21:57:03.217Z,75.6
2017-12-04T22:02:03.442Z,75.6
2017-12-04T22:07:03.544Z,75.5
2017-12-04T22:12:03.866Z,75.5
2017-12-04T22:17:04.080Z,75.3
2017-12-04T22:22:03.192Z,75.3
2017-12-04T22:27:03.439Z,75.1
2017-12-04T22:32:03.584Z,75.3
2017-12-04T22:37:03.507Z,75.2
2017-12-04T22:42:03.627Z,75.4
2017-12-04T22:47:03.712Z,75.7
2017-12-04T22:52:03.847Z,75.5
2017-12-04T22:57:03.960Z,75.3
2017-12-04T23:02:03.257Z,75.3
2017-12-04T23:07:03.449Z,75.4
2017-12-04T23:12:03.614Z,75.2
2017-12-04T23:22:03.409Z,75.3
2017-12-04T23:27:03.237Z,75.6
2017-12-04T23:32:03.324Z,75.2
2017-12-04T23:37:03.072Z,75.2
2017-12-04T23:42:03.195Z,75.2
2017-12-04T23:47:03.328Z,75.4
2017-12-04T23:52:03.871Z,75.6
2017-12-04T23:57:03.880Z,75.8
